Time;durP1;ratioP1;P1;durP2;ratioP2;P2;SDS_P1;SDS_P2;PMS_P1;PMS_P2;Temp;Humidity;BMP_temperature;BMP_pressure;BME280_temperature;BME280_humidity;BME280_pressure;Samples;Min_cycle;Max_cycle;Signal;HPM_P1;HPM_P2
2022/11/28 00:01:43;;;;;;;;;11.00;7.50;;;;;9.64;85.76;100553.50;5073393;27;45348;-66
2022/11/28 00:04:10;;;;;;;;;9.50;9.50;;;;;9.66;85.25;100546.28;5065766;27;45346;-64
2022/11/28 00:06:38;;;;;;;;;7.00;7.00;;;;;9.66;85.60;100533.03;5077109;27;46836;-65
2022/11/28 00:09:04;;;;;;;;;8.25;6.75;;;;;9.68;85.24;100523.16;5059485;27;45607;-65
2022/11/28 00:11:29;;;;;;;;;9.50;9.50;;;;;9.69;85.37;100523.09;5057667;27;46633;-65
2022/11/28 00:13:55;;;;;;;;;8.75;8.75;;;;;9.66;85.29;100517.94;5057356;28;45426;-62
2022/11/28 00:16:22;;;;;;;;;8.25;7.50;;;;;9.73;85.28;100514.00;5063746;27;45311;-64
2022/11/28 00:18:52;;;;;;;;;8.00;8.00;;;;;9.68;85.49;100505.44;5078641;27;45502;-64
2022/11/28 00:21:18;;;;;;;;;8.50;6.25;;;;;9.75;85.75;100511.25;5076025;28;46239;-63
2022/11/28 00:23:44;;;;;;;;;10.50;8.00;;;;;9.74;85.88;100513.06;5021162;28;45312;-63
2022/11/28 00:26:22;;;;;;;;;11.00;8.00;;;;;9.73;87.20;100505.19;5070997;27;45495;-62
2022/11/28 00:28:48;;;;;;;;;10.75;7.25;;;;;9.56;87.77;100473.38;5077002;27;45433;-63
2022/11/28 00:31:15;;;;;;;;;8.00;7.00;;;;;9.78;86.05;100508.47;5063682;27;45463;-63
2022/11/28 00:33:41;;;;;;;;;8.25;6.00;;;;;9.74;86.36;100497.13;5057329;27;45558;-62
2022/11/28 00:36:07;;;;;;;;;6.25;6.25;;;;;9.76;85.34;100505.00;5079555;27;45399;-62
2022/11/28 00:38:33;;;;;;;;;14.50;7.00;;;;;9.75;85.36;100496.19;5057409;28;46023;-63
2022/11/28 00:41:04;;;;;;;;;7.00;5.75;;;;;9.72;86.13;100495.50;5074286;27;45571;-63
2022/11/28 00:43:30;;;;;;;;;6.25;6.00;;;;;9.61;85.62;100466.00;5078186;27;45380;-64
2022/11/28 00:45:56;;;;;;;;;6.00;6.00;;;;;9.73;86.38;100486.59;5055159;27;45508;-63
2022/11/28 00:48:22;;;;;;;;;6.00;6.00;;;;;9.79;86.00;100496.91;5076242;27;45387;-63
2022/11/28 00:50:48;;;;;;;;;6.00;6.00;;;;;9.82;85.86;100485.25;5077028;27;45227;-63
2022/11/28 00:53:13;;;;;;;;;7.50;7.50;;;;;9.84;85.66;100488.66;5075465;27;45768;-63
2022/11/28 00:55:39;;;;;;;;;11.00;7.25;;;;;9.84;85.31;100486.88;5075158;27;45768;-63
2022/11/28 00:58:05;;;;;;;;;7.00;6.25;;;;;9.80;85.65;100476.50;5055898;28;45513;-64
2022/11/28 01:00:31;;;;;;;;;10.00;7.25;;;;;9.86;84.94;100487.63;5075120;27;46005;-63
2022/11/28 01:02:56;;;;;;;;;7.00;7.00;;;;;9.78;85.28;100481.03;5056844;28;45492;-63
2022/11/28 01:05:22;;;;;;;;;8.00;8.00;;;;;9.72;85.16;100480.41;5061797;27;46047;-62
2022/11/28 01:07:47;;;;;;;;;7.75;7.75;;;;;9.84;86.15;100489.53;5075004;27;45545;-63
2022/11/28 01:10:13;;;;;;;;;10.75;7.75;;;;;9.84;85.75;100481.56;5078162;27;45402;-62
2022/11/28 01:12:38;;;;;;;;;10.25;8.00;;;;;9.84;85.25;100481.56;5075787;27;45428;-63
2022/11/28 01:15:06;;;;;;;;;8.50;7.00;;;;;9.86;85.21;100481.47;5058693;27;45339;-64
2022/11/28 01:17:32;;;;;;;;;7.00;7.00;;;;;9.88;86.05;100488.41;5080526;27;45557;-63
2022/11/28 01:19:57;;;;;;;;;8.50;7.00;;;;;9.83;85.88;100476.34;5070240;27;46830;-63
2022/11/28 01:22:23;;;;;;;;;7.00;7.00;;;;;9.92;85.25;100492.63;5038815;28;45309;-62
2022/11/28 01:24:48;;;;;;;;;11.00;9.00;;;;;9.95;85.96;100495.09;5061120;28;45910;-63
2022/11/28 01:27:13;;;;;;;;;10.00;10.00;;;;;9.96;85.74;100494.16;5080080;27;45537;-63
2022/11/28 01:29:39;;;;;;;;;7.50;7.50;;;;;10.03;85.61;100495.56;5077667;27;46283;-63
2022/11/28 01:32:04;;;;;;;;;11.50;6.00;;;;;10.06;85.49;100489.22;5067947;28;45442;-63
2022/11/28 01:34:29;;;;;;;;;10.00;8.00;;;;;10.03;84.93;100490.25;5080761;28;45252;-63
2022/11/28 01:36:55;;;;;;;;;8.00;5.25;;;;;10.07;85.16;100484.75;5082355;27;46024;-63
2022/11/28 01:39:20;;;;;;;;;2.75;2.75;;;;;10.10;85.39;100497.84;5060683;27;47778;-62
2022/11/28 01:41:46;;;;;;;;;7.00;7.00;;;;;10.10;85.39;100498.72;5078411;27;45263;-62
2022/11/28 01:44:14;;;;;;;;;9.75;9.75;;;;;10.18;85.09;100512.44;5079287;27;45758;-63
2022/11/28 01:46:40;;;;;;;;;8.50;7.00;;;;;10.18;85.33;100509.78;5074690;28;45544;-63
2022/11/28 01:49:33;;;;;;;;;10.25;7.75;;;;;10.19;84.50;100510.66;5062046;28;46294;-63
2022/11/28 01:52:06;;;;;;;;;6.00;6.00;;;;;10.15;85.24;100501.09;5072207;27;45537;-63
2022/11/28 01:54:34;;;;;;;;;7.25;6.50;;;;;10.22;85.23;100513.16;5081865;27;45208;-64
2022/11/28 01:57:03;;;;;;;;;8.75;7.00;;;;;10.23;84.90;100520.19;5067539;27;45355;-64
2022/11/28 01:59:36;;;;;;;;;9.50;7.50;;;;;10.25;84.94;100513.84;5058642;27;45340;-63
2022/11/28 02:02:06;;;;;;;;;8.25;8.25;;;;;10.29;84.68;100523.38;5061549;27;45520;-64
2022/11/28 02:04:33;;;;;;;;;11.75;10.50;;;;;10.25;85.10;100512.97;5070398;27;45296;-62
2022/11/28 02:06:58;;;;;;;;;7.00;7.00;;;;;10.25;84.84;100510.31;5069354;27;45502;-62
2022/11/28 02:09:24;;;;;;;;;7.50;7.00;;;;;10.24;84.94;100508.59;5073780;28;45484;-62
2022/11/28 02:12:20;;;;;;;;;10.25;7.00;;;;;10.36;84.51;100528.34;5050724;28;45452;-62
2022/11/28 02:15:07;;;;;;;;;8.25;7.25;;;;;10.34;85.02;100523.97;5063287;27;45760;-62
2022/11/28 02:17:59;;;;;;;;;11.50;7.25;;;;;10.31;84.49;100517.97;5056585;28;45559;-62
2022/11/28 02:20:53;;;;;;;;;9.75;6.25;;;;;10.33;84.81;100524.06;5056661;27;47298;-62
2022/11/28 02:23:36;;;;;;;;;8.50;8.50;;;;;10.35;85.50;100516.84;5055207;27;45831;-63
2022/11/28 02:26:24;;;;;;;;;11.50;7.75;;;;;10.37;85.96;100508.78;5068598;27;45539;-64
2022/11/28 02:29:24;;;;;;;;;10.75;10.75;;;;;10.39;85.79;100506.88;5058278;28;45519;-62
2022/11/28 02:32:12;;;;;;;;;8.00;7.00;;;;;10.39;85.32;100506.88;5075770;28;45452;-63
2022/11/28 02:34:56;;;;;;;;;7.00;7.00;;;;;10.36;85.65;100505.25;5077108;27;45217;-63
2022/11/28 02:37:49;;;;;;;;;9.25;9.25;;;;;10.36;85.73;100507.91;5075748;27;45401;-63
2022/11/28 02:40:14;;;;;;;;;9.50;6.00;;;;;10.35;85.79;100503.56;5071868;27;45522;-63
2022/11/28 02:43:06;;;;;;;;;9.50;8.50;;;;;10.31;85.92;100510.00;5069800;27;45517;-64
2022/11/28 02:46:01;;;;;;;;;12.25;9.75;;;;;10.33;85.75;100510.75;5065202;27;45436;-64
2022/11/28 02:48:59;;;;;;;;;10.50;10.00;;;;;10.31;86.26;100505.53;5069991;27;45431;-63
2022/11/28 02:51:40;;;;;;;;;10.25;8.50;;;;;10.34;86.35;100493.88;5021596;27;45409;-62
2022/11/28 02:54:10;;;;;;;;;10.75;8.75;;;;;10.36;86.11;100486.66;5081512;27;47216;-63
2022/11/28 02:56:36;;;;;;;;;7.75;7.25;;;;;10.34;86.40;100475.25;5072226;27;45343;-63
2022/11/28 02:59:02;;;;;;;;;12.25;10.00;;;;;10.26;86.18;100464.19;5078873;28;45263;-64
2022/11/28 03:01:37;;;;;;;;;5.75;5.75;;;;;10.32;86.26;100466.53;5078192;27;45417;-64
2022/11/28 03:04:18;;;;;;;;;10.75;9.50;;;;;10.31;85.80;100467.47;5059225;28;46175;-63
2022/11/28 03:06:58;;;;;;;;;8.00;8.00;;;;;10.32;85.95;100458.53;5076253;27;45497;-63
2022/11/28 03:09:37;;;;;;;;;8.25;8.25;;;;;10.40;86.14;100460.75;5051563;28;45438;-64
2022/11/28 03:12:40;;;;;;;;;8.00;8.00;;;;;10.39;86.24;100454.56;5075824;27;45543;-62
2022/11/28 03:15:08;;;;;;;;;11.50;11.25;;;;;10.36;86.12;100444.13;5067615;27;45500;-63
2022/11/28 03:17:43;;;;;;;;;5.50;5.00;;;;;10.44;85.60;100452.53;5072898;28;45410;-63
2022/11/28 03:20:38;;;;;;;;;13.00;13.00;;;;;10.45;86.11;100470.19;5079847;27;45517;-63
2022/11/28 03:23:20;;;;;;;;;14.00;11.25;;;;;10.44;86.06;100472.94;5077356;27;45349;-63
2022/11/28 03:25:57;;;;;;;;;11.50;11.25;;;;;10.47;85.68;100467.44;5076437;28;46130;-63
2022/11/28 03:28:45;;;;;;;;;12.00;11.25;;;;;10.49;85.85;100471.72;5058130;28;45372;-63
2022/11/28 03:31:30;;;;;;;;;13.50;11.00;;;;;10.51;85.42;100474.28;5038213;28;45332;-63
2022/11/28 03:33:58;;;;;;;;;9.25;9.25;;;;;10.47;86.08;100478.06;5067039;27;45388;-65
2022/11/28 03:36:31;;;;;;;;;10.75;10.75;;;;;10.47;85.87;100484.25;5079586;27;45403;-63
2022/11/28 03:39:03;;;;;;;;;11.25;11.25;;;;;10.50;86.08;100483.22;5097493;27;45263;-63
2022/11/28 03:41:34;;;;;;;;;11.00;8.50;;;;;10.53;85.82;100489.19;5094546;27;45436;-61
2022/11/28 03:44:02;;;;;;;;;11.25;11.25;;;;;10.47;85.77;100468.28;5077768;28;45500;-65
2022/11/28 03:46:40;;;;;;;;;10.50;10.50;;;;;10.52;85.48;100474.19;5041643;28;45832;-63
2022/11/28 03:49:08;;;;;;;;;13.50;12.25;;;;;10.58;85.93;100487.16;5073850;28;45429;-64
2022/11/28 03:51:48;;;;;;;;;10.50;10.50;;;;;10.56;85.30;100483.72;5076115;27;45418;-63
2022/11/28 03:54:37;;;;;;;;;8.50;8.50;;;;;10.58;85.68;100470.34;5057937;27;45536;-63
2022/11/28 03:57:31;;;;;;;;;12.00;12.00;;;;;10.59;85.03;100466.72;5024454;27;46750;-63
2022/11/28 04:00:03;;;;;;;;;10.00;10.00;;;;;10.61;85.37;100456.84;5076327;27;45284;-62
2022/11/28 04:02:37;;;;;;;;;13.75;12.00;;;;;10.62;85.27;100462.09;5067974;27;45299;-64
2022/11/28 04:05:21;;;;;;;;;12.75;12.75;;;;;10.65;85.10;100461.03;5060406;27;45507;-63
2022/11/28 04:07:57;;;;;;;;;14.25;14.25;;;;;10.66;84.94;100461.91;5058737;28;46256;-63
2022/11/28 04:10:25;;;;;;;;;11.75;11.75;;;;;10.63;85.36;100458.47;5072048;27;46862;-63
2022/11/28 04:13:04;;;;;;;;;11.75;11.25;;;;;10.62;84.54;100461.22;5079643;27;45376;-63
2022/11/28 04:15:53;;;;;;;;;11.00;9.00;;;;;10.59;85.43;100480.03;5075452;27;45338;-63
2022/11/28 04:18:37;;;;;;;;;10.00;10.00;;;;;10.58;85.15;100471.19;5065212;28;46782;-62
2022/11/28 04:21:24;;;;;;;;;11.50;11.50;;;;;10.60;85.36;100479.09;5070369;27;45467;-62
2022/11/28 04:23:52;;;;;;;;;13.00;12.00;;;;;10.58;85.10;100475.66;5072480;27;45838;-62
2022/11/28 04:26:26;;;;;;;;;12.50;8.75;;;;;10.60;85.35;100471.09;5073487;27;45385;-64
2022/11/28 04:28:53;;;;;;;;;19.25;12.00;;;;;10.61;84.98;100460.38;5045353;28;45367;-63
2022/11/28 04:31:22;;;;;;;;;16.50;11.75;;;;;10.61;85.41;100465.69;5051490;27;45348;-64
2022/11/28 04:33:52;;;;;;;;;12.25;12.25;;;;;10.60;85.48;100477.28;5055463;28;45347;-63
2022/11/28 04:36:21;;;;;;;;;15.00;12.00;;;;;10.55;85.53;100466.06;5071185;28;45448;-63
2022/11/28 04:38:55;;;;;;;;;22.75;13.50;;;;;10.55;85.39;100471.38;5075012;28;46193;-62
2022/11/28 04:41:43;;;;;;;;;21.25;9.50;;;;;10.55;85.58;100470.53;5067829;28;45465;-64
2022/11/28 04:44:17;;;;;;;;;14.25;11.00;;;;;10.60;85.11;100474.63;5071524;27;45273;-62
2022/11/28 04:46:47;;;;;;;;;8.00;6.00;;;;;10.55;85.37;100466.06;5067909;27;45311;-62
2022/11/28 04:49:13;;;;;;;;;12.00;12.00;;;;;10.61;85.15;100470.16;5081326;27;45408;-64
2022/11/28 04:52:01;;;;;;;;;12.50;12.00;;;;;10.64;85.37;100486.78;5078102;27;45470;-62
2022/11/28 04:54:36;;;;;;;;;11.75;10.00;;;;;10.66;84.96;100494.66;5041144;27;45783;-63
2022/11/28 04:57:12;;;;;;;;;12.00;9.75;;;;;10.67;84.67;100496.38;5058821;28;45445;-63
2022/11/28 04:59:39;;;;;;;;;14.00;12.50;;;;;10.62;85.20;100488.69;5067500;27;46505;-64
2022/11/28 05:02:05;;;;;;;;;13.50;9.25;;;;;10.64;85.56;100485.94;5058299;27;45741;-62
2022/11/28 05:04:35;;;;;;;;;16.75;10.75;;;;;10.59;85.46;100464.94;5060124;27;45173;-64
2022/11/28 05:07:08;;;;;;;;;15.00;10.75;;;;;10.59;84.99;100451.63;5077723;27;45469;-64
2022/11/28 05:09:34;;;;;;;;;15.25;13.00;;;;;10.63;85.36;100457.63;5076886;27;45401;-64
2022/11/28 05:12:00;;;;;;;;;12.25;12.25;;;;;10.53;85.44;100451.13;5077055;27;45419;-63
2022/11/28 05:14:26;;;;;;;;;13.25;11.75;;;;;10.62;85.48;100472.72;5054414;28;45449;-62
2022/11/28 05:16:51;;;;;;;;;12.00;11.00;;;;;10.58;85.24;100455.25;5060347;28;45342;-63
2022/11/28 05:19:17;;;;;;;;;15.00;11.50;;;;;10.65;85.18;100466.34;5076981;27;46572;-63
2022/11/28 05:21:43;;;;;;;;;15.33;10.67;;;;;10.62;85.16;100464.75;5081031;27;45453;-63
2022/11/28 05:24:09;;;;;;;;;12.75;11.50;;;;;10.63;84.78;100465.59;5077331;27;45227;-65
2022/11/28 05:26:35;;;;;;;;;12.25;10.50;;;;;10.69;85.60;100478.56;5079249;28;45245;-64
2022/11/28 05:29:01;;;;;;;;;11.75;11.75;;;;;10.66;85.13;100477.84;5064143;27;46180;-63
2022/11/28 05:31:27;;;;;;;;;12.75;9.75;;;;;10.54;85.29;100453.69;5060124;28;45339;-64
2022/11/28 05:33:55;;;;;;;;;13.50;11.25;;;;;10.60;84.97;100458.66;5060423;28;45271;-66
2022/11/28 05:36:21;;;;;;;;;11.50;11.00;;;;;10.67;84.90;100458.28;5059178;28;45547;-64
2022/11/28 05:38:47;;;;;;;;;11.00;8.33;;;;;10.68;85.40;100446.69;5058788;27;45362;-64
2022/11/28 05:41:25;;;;;;;;;8.75;8.25;;;;;10.69;85.03;100467.06;5078601;27;45330;-64
2022/11/28 05:43:50;;;;;;;;;15.00;11.50;;;;;10.58;85.05;100447.25;5078601;28;45378;-64
2022/11/28 05:46:17;;;;;;;;;14.00;12.00;;;;;10.70;85.09;100463.44;5079357;28;45265;-64
2022/11/28 05:48:43;;;;;;;;;16.25;10.50;;;;;10.72;85.22;100467.72;5078774;27;45259;-64
2022/11/28 05:51:08;;;;;;;;;11.00;11.00;;;;;10.75;84.86;100467.53;5079552;27;45450;-65
2022/11/28 05:53:34;;;;;;;;;11.50;11.50;;;;;10.68;85.32;100454.69;5070019;27;45480;-65
2022/11/28 05:56:07;;;;;;;;;17.50;14.50;;;;;10.77;85.10;100459.47;5078545;27;45468;-65
2022/11/28 05:58:33;;;;;;;;;9.25;7.00;;;;;10.73;84.82;100463.25;5057765;27;46141;-63
2022/11/28 06:00:59;;;;;;;;;12.00;11.00;;;;;10.75;85.18;100472.00;5061233;27;45797;-65
2022/11/28 06:03:24;;;;;;;;;13.00;11.00;;;;;10.73;84.78;100473.91;5084996;27;45346;-65
2022/11/28 06:05:50;;;;;;;;;14.00;11.50;;;;;10.76;85.18;100471.91;5062966;27;45589;-67
2022/11/28 06:08:15;;;;;;;;;13.75;10.00;;;;;10.77;85.03;100472.75;5063278;27;45586;-65
2022/11/28 06:10:41;;;;;;;;;12.00;11.33;;;;;10.84;84.68;100479.47;5076074;27;45651;-64
2022/11/28 06:13:07;;;;;;;;;14.50;13.00;;;;;10.78;84.99;100472.69;5075067;27;45427;-65
2022/11/28 06:15:33;;;;;;;;;11.75;11.75;;;;;10.87;84.49;100487.25;5060140;28;45520;-65
2022/11/28 06:17:59;;;;;;;;;9.25;9.25;;;;;10.80;84.74;100476.09;5082295;27;45329;-66
2022/11/28 06:20:24;;;;;;;;;9.75;9.75;;;;;10.89;84.27;100482.69;5067079;27;45458;-65
2022/11/28 06:22:49;;;;;;;;;11.25;8.75;;;;;10.93;84.22;100497.50;5078354;27;45240;-68
2022/11/28 06:25:15;;;;;;;;;17.50;11.25;;;;;10.94;84.12;100501.91;5080454;27;45223;-65
2022/11/28 06:27:40;;;;;;;;;16.00;13.00;;;;;10.94;84.86;100496.59;5049478;28;46112;-63
2022/11/28 06:30:06;;;;;;;;;14.50;12.00;;;;;10.96;84.32;100497.34;5076173;27;45335;-63
2022/11/28 06:32:32;;;;;;;;;12.33;12.33;;;;;11.00;84.22;100503.34;5078756;28;45350;-64
2022/11/28 06:34:57;;;;;;;;;15.67;12.67;;;;;11.03;83.77;100508.47;5079287;27;45537;-63
2022/11/28 06:37:23;;;;;;;;;11.00;11.00;;;;;11.04;83.39;100516.38;5078657;28;46036;-64
2022/11/28 06:39:50;;;;;;;;;11.00;9.00;;;;;11.01;83.61;100508.56;5072938;27;45463;-60
2022/11/28 06:42:15;;;;;;;;;11.67;11.67;;;;;11.04;83.19;100511.03;5069102;28;45441;-64
2022/11/28 06:44:41;;;;;;;;;13.00;11.00;;;;;11.07;83.25;100504.72;5051765;28;45528;-62
2022/11/28 06:47:07;;;;;;;;;8.75;8.75;;;;;11.07;83.33;100510.03;5077464;28;45513;-65
2022/11/28 06:49:32;;;;;;;;;9.50;8.50;;;;;11.09;83.14;100518.78;5070689;27;45920;-63
2022/11/28 06:51:57;;;;;;;;;16.00;9.50;;;;;11.09;83.01;100514.31;5086746;27;45512;-64
2022/11/28 06:54:23;;;;;;;;;9.00;9.00;;;;;11.11;82.69;100522.19;5081232;27;45429;-67
2022/11/28 06:56:48;;;;;;;;;12.75;10.00;;;;;11.07;82.41;100526.84;5065172;27;45442;-67
2022/11/28 06:59:13;;;;;;;;;9.00;8.00;;;;;11.06;82.98;100535.75;5069014;27;45806;-66
2022/11/28 07:01:39;;;;;;;;;7.25;7.00;;;;;11.06;82.46;100522.44;5077364;28;45782;-64
2022/11/28 07:04:04;;;;;;;;;10.75;8.00;;;;;11.08;82.64;100522.38;5060252;28;45533;-68
2022/11/28 07:06:29;;;;;;;;;8.00;8.00;;;;;11.06;82.34;100518.94;5076715;28;46448;-64
2022/11/28 07:08:57;;;;;;;;;12.33;9.67;;;;;11.07;82.75;100531.31;5076497;27;45216;-60
2022/11/28 07:11:33;;;;;;;;;11.33;9.00;;;;;11.08;82.42;100541.88;5072342;27;45380;-64
2022/11/28 07:14:00;;;;;;;;;16.25;9.00;;;;;11.06;82.28;100530.44;5073577;27;45381;-68
2022/11/28 07:16:29;;;;;;;;;14.00;8.25;;;;;11.04;82.31;100532.34;5057756;28;46618;-67
2022/11/28 07:18:55;;;;;;;;;10.50;7.00;;;;;11.03;82.30;100525.31;5073482;27;45560;-64
2022/11/28 07:21:21;;;;;;;;;10.00;8.00;;;;;11.03;82.09;100525.31;5071644;27;46838;-62
2022/11/28 07:23:47;;;;;;;;;11.00;7.67;;;;;11.04;82.13;100534.16;5058640;27;45632;-65
2022/11/28 07:26:16;;;;;;;;;11.00;11.00;;;;;11.00;81.69;100520.16;5071506;27;47286;-66
2022/11/28 07:28:42;;;;;;;;;12.50;10.75;;;;;11.05;82.17;100523.41;5059552;27;45807;-64
2022/11/28 07:31:13;;;;;;;;;12.50;11.25;;;;;11.08;82.15;100530.38;5071219;27;45548;-61
2022/11/28 07:33:40;;;;;;;;;12.25;7.00;;;;;11.07;82.07;100518.03;5070270;27;45462;-65
2022/11/28 07:36:11;;;;;;;;;13.25;8.00;;;;;11.08;81.82;100522.38;5072760;27;47511;-64
2022/11/28 07:38:36;;;;;;;;;8.50;8.50;;;;;11.08;81.70;100533.91;5093049;27;45417;-62
2022/11/28 07:41:03;;;;;;;;;11.50;9.00;;;;;11.12;82.27;100535.41;5062170;28;45403;-61
2022/11/28 07:43:28;;;;;;;;;9.00;7.00;;;;;11.17;82.28;100541.31;5077060;27;45359;-61
2022/11/28 07:45:53;;;;;;;;;12.75;11.75;;;;;11.14;81.33;100544.16;5062369;28;45496;-60
2022/11/28 07:48:19;;;;;;;;;10.75;8.75;;;;;11.14;81.52;100549.50;5076648;28;45484;-63
2022/11/28 07:50:44;;;;;;;;;13.50;8.75;;;;;11.12;81.16;100534.56;5076792;27;45293;-61
2022/11/28 07:53:10;;;;;;;;;9.00;7.75;;;;;11.10;81.29;100525.81;5058663;28;45375;-63
2022/11/28 07:55:35;;;;;;;;;8.25;8.25;;;;;11.11;81.44;100538.16;5077037;28;45349;-63
2022/11/28 07:58:02;;;;;;;;;11.75;8.75;;;;;11.13;81.28;100545.13;5076766;27;45465;-62
2022/11/28 08:00:28;;;;;;;;;12.67;11.00;;;;;11.10;80.79;100549.78;5076182;28;45287;-61
2022/11/28 08:02:53;;;;;;;;;15.67;9.33;;;;;11.11;81.09;100548.81;5076654;28;45248;-63
2022/11/28 08:05:18;;;;;;;;;8.33;8.33;;;;;11.01;80.69;100537.84;5076405;28;45248;-62
2022/11/28 08:07:44;;;;;;;;;13.75;7.75;;;;;11.07;80.72;100552.63;5077262;28;45212;-63
2022/11/28 08:10:09;;;;;;;;;7.00;6.00;;;;;11.00;80.69;100546.78;5078022;28;45500;-63
2022/11/28 08:12:35;;;;;;;;;10.50;7.50;;;;;10.98;80.60;100551.34;5077571;28;45498;-62
2022/11/28 08:15:00;;;;;;;;;6.25;6.25;;;;;11.08;80.67;100565.84;5058296;27;46122;-61
2022/11/28 08:17:25;;;;;;;;;7.50;6.75;;;;;11.06;80.35;100557.06;5076608;28;45433;-62
2022/11/28 08:19:51;;;;;;;;;7.33;7.33;;;;;11.03;80.25;100551.91;5076983;27;45317;-62
2022/11/28 08:22:16;;;;;;;;;8.33;6.33;;;;;11.06;79.22;100562.38;5077720;28;45298;-62
2022/11/28 08:24:42;;;;;;;;;7.67;7.67;;;;;11.04;79.70;100558.09;5075779;28;46632;-64
2022/11/28 08:27:09;;;;;;;;;8.00;3.00;;;;;11.06;79.52;100557.06;5076441;28;45244;-62
2022/11/28 08:29:35;;;;;;;;;7.33;7.00;;;;;11.04;79.39;100558.09;5076231;28;45278;-63
2022/11/28 08:32:00;;;;;;;;;4.00;4.00;;;;;11.06;79.68;100565.03;5075988;27;45595;-64
2022/11/28 08:34:26;;;;;;;;;6.00;4.00;;;;;11.11;79.14;100570.13;5075763;28;45459;-64
2022/11/28 08:36:51;;;;;;;;;7.67;6.33;;;;;11.08;79.54;100562.31;5075458;28;45491;-65
2022/11/28 08:39:16;;;;;;;;;8.00;7.33;;;;;11.14;79.72;100570.78;5091891;27;45449;-64
2022/11/28 08:41:42;;;;;;;;;6.50;5.50;;;;;11.13;79.40;100561.09;5076346;27;45454;-63
2022/11/28 08:44:07;;;;;;;;;7.75;7.75;;;;;11.07;79.36;100553.47;5057775;28;45374;-64
2022/11/28 08:46:33;;;;;;;;;3.67;3.67;;;;;11.14;79.27;100560.13;5075951;27;45353;-63
2022/11/28 08:49:00;;;;;;;;;3.00;3.00;;;;;11.13;79.00;100547.78;5076091;28;45335;-62
2022/11/28 08:51:28;;;;;;;;;6.67;3.00;;;;;11.19;78.96;100563.38;5055464;28;45304;-63
2022/11/28 08:53:55;;;;;;;;;7.50;4.50;;;;;11.17;78.55;100553.75;5088197;27;46186;-70
2022/11/28 08:56:21;;;;;;;;;6.25;6.25;;;;;11.16;78.78;100568.88;5074596;27;45509;-65
2022/11/28 08:58:46;;;;;;;;;6.67;6.67;;;;;11.09;79.01;100551.56;5081019;27;45291;-65
2022/11/28 09:01:15;;;;;;;;;8.00;6.00;;;;;11.15;78.70;100561.84;5096386;27;45482;-62
2022/11/28 09:03:40;;;;;;;;;7.75;6.25;;;;;11.17;78.96;100567.94;5095557;27;46346;-59
2022/11/28 09:06:06;;;;;;;;;12.00;7.00;;;;;11.04;78.60;100532.34;5059070;28;45559;-63
2022/11/28 09:08:31;;;;;;;;;8.67;7.00;;;;;11.22;78.86;100552.56;5051671;28;45468;-64
2022/11/28 09:10:57;;;;;;;;;8.33;6.33;;;;;11.32;78.97;100552.00;5062822;27;45234;-68
2022/11/28 09:13:23;;;;;;;;;7.00;6.00;;;;;11.33;78.79;100553.69;5076281;28;45778;-63
2022/11/28 09:15:49;;;;;;;;;14.00;9.00;;;;;11.35;78.24;100563.34;5058068;28;45357;-61
2022/11/28 09:18:14;;;;;;;;;3.33;3.33;;;;;11.33;78.00;100562.59;5075647;28;45399;-64
2022/11/28 09:20:41;;;;;;;;;7.67;6.00;;;;;11.36;78.46;100561.53;5075882;28;45540;-64
2022/11/28 09:23:10;;;;;;;;;6.33;6.33;;;;;11.28;78.20;100551.31;5075538;28;45418;-62
2022/11/28 09:25:38;;;;;;;;;7.67;7.00;;;;;11.38;78.50;100552.50;5055743;28;45445;-63
2022/11/28 09:28:04;;;;;;;;;8.00;6.67;;;;;11.40;77.86;100565.72;5056592;28;45370;-62
2022/11/28 09:30:30;;;;;;;;;8.00;8.00;;;;;11.38;78.05;100568.47;5076285;27;45843;-62
2022/11/28 09:32:55;;;;;;;;;6.75;4.00;;;;;11.38;78.17;100571.13;5078178;28;45449;-61
2022/11/28 09:35:21;;;;;;;;;6.33;6.00;;;;;11.39;77.68;100574.66;5060247;28;45492;-64
2022/11/28 09:37:47;;;;;;;;;8.33;7.00;;;;;11.30;77.86;100559.22;5078948;27;45429;-62
2022/11/28 09:40:23;;;;;;;;;7.33;5.33;;;;;11.37;78.40;100571.22;5079017;28;45502;-61
2022/11/28 09:42:48;;;;;;;;;7.33;6.33;;;;;11.38;78.02;100579.13;5077461;28;46797;-61
2022/11/28 09:45:16;;;;;;;;;10.33;7.00;;;;;11.38;77.45;100580.94;5078659;28;45397;-63
2022/11/28 09:47:48;;;;;;;;;12.67;8.67;;;;;11.37;77.67;100579.22;5060533;28;45361;-62
2022/11/28 09:50:21;;;;;;;;;10.33;7.67;;;;;11.44;77.49;100586.72;5078814;28;45414;-62
2022/11/28 09:53:09;;;;;;;;;9.00;7.67;;;;;11.47;77.45;100588.38;5060380;28;45525;-64
2022/11/28 09:55:47;;;;;;;;;6.67;6.67;;;;;11.53;77.44;100588.00;5066377;27;45287;-63
2022/11/28 09:58:23;;;;;;;;;7.00;4.00;;;;;11.53;77.21;100577.34;5078199;27;45382;-63
2022/11/28 10:01:14;;;;;;;;;6.33;6.00;;;;;11.59;76.59;100574.34;5077608;27;45460;-63
2022/11/28 10:04:11;;;;;;;;;2.33;2.33;;;;;11.66;76.60;100580.97;5054942;28;46840;-63
2022/11/28 10:06:40;;;;;;;;;8.33;8.33;;;;;11.71;76.00;100568.22;5071010;27;45487;-62
2022/11/28 10:09:30;;;;;;;;;7.00;6.00;;;;;11.72;76.41;100577.97;5078117;28;45473;-64
2022/11/28 10:12:25;;;;;;;;;6.33;6.00;;;;;11.70;75.92;100574.50;5058551;27;45454;-63
2022/11/28 10:15:20;;;;;;;;;9.00;7.00;;;;;11.71;76.42;100570.03;5077846;28;45684;-63
2022/11/28 10:18:07;;;;;;;;;9.00;6.33;;;;;11.70;76.41;100574.50;5057365;28;45652;-61
2022/11/28 10:20:37;;;;;;;;;7.00;7.00;;;;;11.66;75.70;100573.00;5078287;28;45374;-61
2022/11/28 10:23:28;;;;;;;;;10.33;5.33;;;;;11.75;76.13;100572.44;5078033;28;45292;-63
2022/11/28 10:26:08;;;;;;;;;7.67;6.33;;;;;11.81;74.61;100579.22;5059442;28;45388;-63
2022/11/28 10:28:38;;;;;;;;;7.00;7.00;;;;;11.83;74.46;100579.97;5077570;27;45350;-64
2022/11/28 10:31:19;;;;;;;;;8.00;7.00;;;;;11.87;74.43;100570.00;5077731;28;45596;-62
2022/11/28 10:33:53;;;;;;;;;7.00;6.00;;;;;11.87;74.32;100570.00;5077597;27;45628;-64
2022/11/28 10:36:26;;;;;;;;;13.00;7.00;;;;;11.93;74.25;100569.63;5077498;27;46301;-62
2022/11/28 10:38:52;;;;;;;;;9.67;6.00;;;;;11.87;74.56;100564.69;5077423;27;45453;-61
2022/11/28 10:42:13;;;;;;;;;10.67;6.00;;;;;11.97;74.28;100568.47;5075634;27;45391;-63
2022/11/28 10:44:52;;;;;;;;;6.33;6.33;;;;;12.04;73.80;100564.47;5075385;28;45717;-62
2022/11/28 10:47:46;;;;;;;;;4.67;4.67;;;;;12.05;72.80;100568.84;5076159;28;47127;-61
2022/11/28 10:50:29;;;;;;;;;5.67;4.67;;;;;12.01;73.02;100567.34;5077913;27;45411;-60
2022/11/28 10:53:00;;;;;;;;;7.33;6.00;;;;;12.04;73.37;100561.81;5078499;27;45338;-62
2022/11/28 10:55:42;;;;;;;;;8.33;3.67;;;;;12.19;72.74;100568.00;5059976;28;45590;-60
2022/11/28 10:58:22;;;;;;;;;4.67;3.00;;;;;12.31;72.00;100561.88;5077347;28;46547;-62
2022/11/28 11:00:51;;;;;;;;;6.33;6.00;;;;;12.39;71.92;100552.44;5077469;27;45367;-62
2022/11/28 11:03:18;;;;;;;;;3.33;3.00;;;;;12.54;71.48;100560.41;5077887;28;45346;-60
2022/11/28 11:05:44;;;;;;;;;6.67;4.00;;;;;12.55;70.96;100551.44;5077094;28;45374;-60
2022/11/28 11:08:21;;;;;;;;;8.00;4.00;;;;;12.44;71.31;100543.28;5077392;28;46291;-61
2022/11/28 11:11:29;;;;;;;;;7.00;4.00;;;;;12.49;71.39;100557.16;5077446;28;45294;-61
2022/11/28 11:14:02;;;;;;;;;7.00;3.00;;;;;12.53;70.67;100554.22;5060475;28;45488;-62
2022/11/28 11:16:47;;;;;;;;;3.00;3.00;;;;;12.63;70.54;100559.78;5077791;28;45325;-61
2022/11/28 11:19:30;;;;;;;;;8.00;4.00;;;;;12.68;70.29;100565.72;5077965;28;46220;-64
2022/11/28 11:22:17;;;;;;;;;4.33;2.33;;;;;12.75;69.94;100564.34;5077709;28;45263;-62
2022/11/28 11:24:44;;;;;;;;;10.33;4.00;;;;;12.73;69.96;100579.59;5077441;28;45315;-61
2022/11/28 11:27:20;;;;;;;;;5.33;4.00;;;;;12.54;70.59;100560.41;5077724;28;45612;-62
2022/11/28 11:29:46;;;;;;;;;6.67;4.67;;;;;12.67;70.00;100566.66;5077260;27;45526;-61
2022/11/28 11:32:26;;;;;;;;;5.67;5.67;;;;;12.80;69.90;100572.91;5077375;27;45462;-62
2022/11/28 11:34:53;;;;;;;;;5.00;4.00;;;;;12.82;69.50;100538.97;5076754;27;45724;-61
2022/11/28 11:37:27;;;;;;;;;5.33;5.33;;;;;13.09;69.16;100554.09;5076382;28;45866;-61
2022/11/28 11:39:53;;;;;;;;;4.00;2.67;;;;;13.03;68.10;100541.19;5074453;27;45846;-58